Current Conditions
Mostly Clear
Conditions



Pressure
1011.92 (hPa) - 29.88 (inHG)
Visibility

10.0 (km) - 6.2 (miles)
   Temperature
23  °C
73°F
21  °C
Dewpoint
89  %
 Humidity
   Wind Speed
13  km/h
7  kts
8  mph
3.6  m/s
   Wind Direction
 340°
North North
West
   Airport Data
LTBA
Location Atatürk International 10 km (6.22 mi)
Metar :LTBA 172350Z 34007KT CAVOK 23/21 Q1012 NOSIG RMK RWY17L 35008KT RWY05 35006KT 310V020 RWY23 02008KT
Tue 18th June 02:50 am
   Raw Metar Info
Raw METAR is the most common format in the world for the transmission of observational weather data. It is highly standardized through the International Civil Aviation Organization (ICAO), which allows it to be understood throughout most of the world.
   API Info
Data Provided by
https://www.checkwx.com/weather/
   © Info
CSS/SVG/PHP scripts were developed by weather34.com for use in the weather34 template © 2015-2019

Guide Info provided by Metar-Wikipedia